createdAt,value
2023-01-09T00:00:17.337Z,13.13
2023-01-09T00:04:29.996Z,13.85
2023-01-09T00:08:42.390Z,12.90
2023-01-09T00:12:54.773Z,14.45
2023-01-09T00:17:08.008Z,12.20
2023-01-09T00:21:21.387Z,12.68
2023-01-09T00:25:33.933Z,15.65
2023-01-09T00:29:46.951Z,15.75
2023-01-09T00:34:03.187Z,13.98
2023-01-09T00:38:15.496Z,14.95
2023-01-09T00:42:32.271Z,14.23
2023-01-09T00:46:49.359Z,14.52
2023-01-09T00:51:01.773Z,13.52
2023-01-09T00:55:15.689Z,10.82
2023-01-09T00:59:28.818Z,9.05
2023-01-09T01:03:41.483Z,7.75
2023-01-09T01:07:53.872Z,10.07
2023-01-09T01:12:07.513Z,9.32
2023-01-09T01:16:20.429Z,7.18
2023-01-09T01:20:33.004Z,10.32
2023-01-09T01:24:45.364Z,7.78
2023-01-09T01:28:59.890Z,8.60
2023-01-09T01:33:12.214Z,9.40
2023-01-09T01:37:24.933Z,8.80
2023-01-09T01:41:37.950Z,9.65
2023-01-09T01:45:50.306Z,11.25
2023-01-09T01:50:08.807Z,10.70
2023-01-09T01:54:26.558Z,11.00
2023-01-09T01:59:05.626Z,9.48
2023-01-09T02:03:19.715Z,9.93
2023-01-09T02:07:32.042Z,8.38
2023-01-09T02:11:52.704Z,11.02
2023-01-09T02:16:23.056Z,8.57
2023-01-09T02:20:49.055Z,8.20
2023-01-09T02:25:29.172Z,7.45
2023-01-09T02:29:54.811Z,10.33
2023-01-09T02:34:20.268Z,10.10
2023-01-09T02:39:00.530Z,9.02
2023-01-09T02:43:13.767Z,8.82
2023-01-09T02:47:26.079Z,10.13
2023-01-09T02:51:53.075Z,8.52
2023-01-09T02:56:12.551Z,7.97
2023-01-09T03:00:36.667Z,8.93
2023-01-09T03:05:07.156Z,7.95
2023-01-09T03:13:50.258Z,10.50
2023-01-09T03:18:06.086Z,8.52
2023-01-09T03:22:20.067Z,8.57
2023-01-09T03:26:32.702Z,7.00
2023-01-09T03:30:45.397Z,8.77
2023-01-09T03:34:57.720Z,7.03
2023-01-09T03:39:10.070Z,7.22
2023-01-09T03:43:22.486Z,8.30
2023-01-09T03:47:34.948Z,8.35
2023-01-09T03:51:47.354Z,8.05
2023-01-09T03:55:59.787Z,8.50
2023-01-09T04:00:13.270Z,7.97
2023-01-09T04:04:25.640Z,9.57
2023-01-09T04:08:37.956Z,10.93
2023-01-09T04:12:50.404Z,7.47
2023-01-09T04:17:02.863Z,7.65
2023-01-09T04:21:15.197Z,6.68
2023-01-09T04:25:27.901Z,7.00
2023-01-09T04:29:40.179Z,8.23
2023-01-09T04:33:52.538Z,7.90
2023-01-09T04:38:04.917Z,7.90
2023-01-09T04:42:17.582Z,7.30
2023-01-09T04:46:29.886Z,8.43
2023-01-09T04:50:42.251Z,11.13
2023-01-09T04:54:54.685Z,8.00
2023-01-09T04:59:07.620Z,9.18
2023-01-09T05:03:20.058Z,9.18
2023-01-09T05:07:34.684Z,8.52
2023-01-09T05:11:47.005Z,6.78
2023-01-09T05:15:59.396Z,6.90
2023-01-09T05:20:12.626Z,15.38
2023-01-09T05:24:25.049Z,6.68
2023-01-09T05:28:37.426Z,5.43
2023-01-09T05:32:49.802Z,7.45
2023-01-09T05:37:02.917Z,8.75
2023-01-09T05:41:16.948Z,6.00
2023-01-09T05:45:29.343Z,7.60
2023-01-09T05:49:42.029Z,8.10
2023-01-09T05:53:54.511Z,7.05
2023-01-09T05:58:06.838Z,9.00
2023-01-09T06:02:21.471Z,9.35
2023-01-09T06:06:33.897Z,7.10
2023-01-09T06:10:47.337Z,7.28
2023-01-09T06:14:59.827Z,6.93
2023-01-09T06:19:12.175Z,7.97
2023-01-09T06:23:24.523Z,7.13
2023-01-09T06:27:36.845Z,12.88
2023-01-09T06:31:49.223Z,11.20
2023-01-09T06:36:01.770Z,8.15
2023-01-09T06:40:15.216Z,15.27
2023-01-09T06:44:27.608Z,11.82
2023-01-09T06:48:39.959Z,15.05
2023-01-09T06:52:52.383Z,15.57
2023-01-09T06:57:04.899Z,12.85
2023-01-09T07:01:17.498Z,17.30
2023-01-09T07:05:30.741Z,13.00
2023-01-09T07:09:43.168Z,12.05
2023-01-09T07:13:55.655Z,21.30
2023-01-09T07:18:08.082Z,17.20
2023-01-09T07:22:20.454Z,18.60
2023-01-09T07:26:32.926Z,16.42
2023-01-09T07:30:45.230Z,21.13
2023-01-09T07:34:57.763Z,15.40
2023-01-09T07:39:10.154Z,18.95
2023-01-09T07:43:27.292Z,9.43
2023-01-09T07:47:41.981Z,14.07
2023-01-09T07:51:57.495Z,12.18
2023-01-09T07:56:10.608Z,10.65
2023-01-09T08:00:23.135Z,8.35
2023-01-09T08:04:35.675Z,11.88
2023-01-09T08:08:48.116Z,10.82
2023-01-09T08:13:00.719Z,10.18
2023-01-09T08:17:13.575Z,13.50
2023-01-09T08:21:25.840Z,15.55
2023-01-09T08:25:38.175Z,7.15
2023-01-09T08:29:50.761Z,8.77
2023-01-09T08:34:03.546Z,14.02
2023-01-09T08:38:16.046Z,9.10
2023-01-09T08:42:46.966Z,9.85
2023-01-09T08:47:06.532Z,10.77
2023-01-09T08:51:20.716Z,6.57
2023-01-09T08:55:33.037Z,6.97
2023-01-09T08:59:45.526Z,9.35
2023-01-09T09:03:57.963Z,4.75
2023-01-09T09:08:12.926Z,7.85
2023-01-09T09:12:26.253Z,9.43
2023-01-09T09:16:38.651Z,6.25
2023-01-09T09:20:51.455Z,6.88
2023-01-09T09:25:05.234Z,6.65
2023-01-09T09:29:17.644Z,8.93
2023-01-09T09:33:30.616Z,11.35
2023-01-09T09:37:44.551Z,6.05
2023-01-09T09:42:53.028Z,9.55
2023-01-09T09:47:27.350Z,8.10
2023-01-09T09:51:50.783Z,8.60
2023-01-09T09:56:05.066Z,10.43
2023-01-09T10:00:22.558Z,11.40
2023-01-09T10:04:40.733Z,7.57
2023-01-09T10:09:15.039Z,8.60
2023-01-09T10:13:46.744Z,6.97
2023-01-09T10:18:11.267Z,5.93
2023-01-09T10:23:15.242Z,7.18
2023-01-09T10:27:39.791Z,6.03
2023-01-09T10:32:10.207Z,12.63
2023-01-09T10:40:52.143Z,7.65
2023-01-09T10:45:19.863Z,6.25
2023-01-09T10:49:36.454Z,9.85
2023-01-09T10:53:54.423Z,13.63
2023-01-09T10:58:14.683Z,12.98
2023-01-09T11:02:33.898Z,14.43
2023-01-09T11:06:51.477Z,10.77
2023-01-09T11:11:04.921Z,10.60
2023-01-09T11:15:20.885Z,5.65
2023-01-09T11:19:33.903Z,6.70
2023-01-09T11:23:46.158Z,6.68
2023-01-09T11:28:07.978Z,6.90
2023-01-09T11:32:25.525Z,8.38
2023-01-09T11:36:38.222Z,8.57
2023-01-09T11:40:57.802Z,7.82
2023-01-09T11:45:22.203Z,8.48
2023-01-09T11:49:34.584Z,8.73
2023-01-09T11:53:57.795Z,7.65
2023-01-09T11:58:20.197Z,8.27
2023-01-09T12:02:35.794Z,9.15
2023-01-09T12:07:45.110Z,8.55
2023-01-09T12:12:12.132Z,10.35
2023-01-09T12:16:33.881Z,7.55
2023-01-09T12:21:04.090Z,9.80
2023-01-09T12:25:38.673Z,9.35
2023-01-09T12:30:02.846Z,6.47
2023-01-09T12:34:26.125Z,7.47
2023-01-09T12:39:08.594Z,6.60
2023-01-09T12:43:58.628Z,7.05
2023-01-09T12:48:28.775Z,8.10
2023-01-09T12:52:58.647Z,7.93
2023-01-09T12:57:33.237Z,15.10
2023-01-09T13:01:51.346Z,12.10
2023-01-09T13:06:13.238Z,12.48
2023-01-09T13:10:43.967Z,15.88
2023-01-09T13:15:07.888Z,17.67
2023-01-09T13:19:37.738Z,11.07
2023-01-09T13:24:03.546Z,9.32
2023-01-09T13:28:31.648Z,10.45
2023-01-09T13:32:52.036Z,11.25
2023-01-09T13:37:04.544Z,11.38
2023-01-09T13:41:37.690Z,6.60
2023-01-09T13:45:52.621Z,10.18
2023-01-09T13:50:09.372Z,7.95
2023-01-09T13:54:58.992Z,13.43
2023-01-09T13:59:28.481Z,6.43
2023-01-09T14:03:40.847Z,8.07
2023-01-09T14:08:07.243Z,7.90
2023-01-09T14:12:22.713Z,6.07
2023-01-09T14:16:38.291Z,9.30
2023-01-09T14:21:12.565Z,9.57
2023-01-09T14:25:29.574Z,6.47
2023-01-09T14:29:44.084Z,9.38
2023-01-09T14:34:32.243Z,6.72
2023-01-09T14:38:49.696Z,6.22
2023-01-09T14:43:13.367Z,6.03
2023-01-09T14:47:31.793Z,8.23
2023-01-09T14:51:47.341Z,7.70
2023-01-09T14:56:02.837Z,8.48
2023-01-09T15:00:18.342Z,7.53
2023-01-09T15:04:40.978Z,8.35
2023-01-09T15:09:02.414Z,11.40
2023-01-09T15:13:29.750Z,11.48
2023-01-09T15:17:45.743Z,12.15
2023-01-09T15:22:05.742Z,15.00
2023-01-09T15:30:39.584Z,12.98
2023-01-09T15:34:55.348Z,15.05
2023-01-09T15:39:07.890Z,19.95
2023-01-09T15:43:20.652Z,30.23
2023-01-09T15:47:33.109Z,24.67
2023-01-09T15:51:47.343Z,27.92
2023-01-09T15:56:09.092Z,31.73
2023-01-09T16:00:35.552Z,29.63
2023-01-09T16:04:49.198Z,30.48
2023-01-09T16:09:02.976Z,24.17
2023-01-09T16:13:16.180Z,28.67
2023-01-09T16:17:31.372Z,24.98
2023-01-09T16:21:46.967Z,21.45
2023-01-09T16:26:20.171Z,20.77
2023-01-09T16:30:33.472Z,19.95
2023-01-09T16:34:53.300Z,26.17
2023-01-09T16:39:05.759Z,21.65
2023-01-09T16:43:18.006Z,20.80
2023-01-09T16:47:30.405Z,20.35
2023-01-09T16:51:42.710Z,22.17
2023-01-09T16:55:55.405Z,21.20
2023-01-09T17:00:14.492Z,24.80
2023-01-09T17:04:26.944Z,21.23
2023-01-09T17:08:40.773Z,20.02
2023-01-09T17:12:53.266Z,20.40
2023-01-09T17:17:11.628Z,22.80
2023-01-09T17:21:27.235Z,26.13
2023-01-09T17:25:58.852Z,16.38
2023-01-09T17:30:18.662Z,15.77
2023-01-09T17:34:32.185Z,19.30
2023-01-09T17:38:44.536Z,15.43
2023-01-09T17:42:56.955Z,16.98
2023-01-09T17:47:18.540Z,15.02
2023-01-09T17:51:32.029Z,11.50
2023-01-09T17:55:44.586Z,9.10
2023-01-09T17:59:57.044Z,6.45
2023-01-09T18:04:09.865Z,6.30
2023-01-09T18:08:22.228Z,6.90
2023-01-09T18:12:36.137Z,4.95
2023-01-09T18:16:48.625Z,7.22
2023-01-09T18:21:05.062Z,7.28
2023-01-09T18:25:17.667Z,3.13
2023-01-09T18:29:30.649Z,8.18
2023-01-09T18:33:47.342Z,3.75
2023-01-09T18:38:00.263Z,4.32
2023-01-09T18:42:12.905Z,3.17
2023-01-09T18:46:26.315Z,3.15
2023-01-09T18:50:39.035Z,4.75
2023-01-09T18:54:52.553Z,4.07
2023-01-09T18:59:07.003Z,3.72
2023-01-09T19:03:20.578Z,4.65
2023-01-09T19:07:34.186Z,5.40
2023-01-09T19:11:46.879Z,4.88
2023-01-09T19:16:00.501Z,4.28
2023-01-09T19:20:13.025Z,5.38
2023-01-09T19:24:25.792Z,3.85
2023-01-09T19:28:39.873Z,3.92
2023-01-09T19:32:52.459Z,4.68
2023-01-09T19:37:05.252Z,2.72
2023-01-09T19:41:20.293Z,6.82
2023-01-09T19:45:32.790Z,3.33
2023-01-09T19:49:46.784Z,2.28
2023-01-09T19:58:16.008Z,2.33
2023-01-09T20:02:28.429Z,2.65
2023-01-09T20:06:45.915Z,3.10
2023-01-09T20:11:03.698Z,2.33
2023-01-09T20:15:18.628Z,3.60
2023-01-09T20:19:33.447Z,3.03
2023-01-09T20:23:46.085Z,4.38
2023-01-09T20:27:58.954Z,3.67
2023-01-09T20:32:12.315Z,4.35
2023-01-09T20:36:29.405Z,3.15
2023-01-09T20:40:45.082Z,3.40
2023-01-09T20:44:57.539Z,4.28
2023-01-09T20:49:13.630Z,3.78
2023-01-09T20:53:26.131Z,3.80
2023-01-09T20:57:40.221Z,2.78
2023-01-09T21:01:54.084Z,2.55
2023-01-09T21:06:08.303Z,6.10
2023-01-09T21:10:24.028Z,2.53
2023-01-09T21:14:39.120Z,1.92
2023-01-09T21:18:54.488Z,3.45
2023-01-09T21:23:09.107Z,3.25
2023-01-09T21:27:21.611Z,2.05
2023-01-09T21:31:35.130Z,2.83
2023-01-09T21:35:58.896Z,2.70
2023-01-09T21:40:18.199Z,3.25
2023-01-09T21:44:49.213Z,1.92
2023-01-09T21:49:07.279Z,3.03
2023-01-09T21:53:20.213Z,2.78
2023-01-09T21:57:32.613Z,2.97
2023-01-09T22:01:52.353Z,4.35
2023-01-09T22:06:05.839Z,2.58
2023-01-09T22:10:18.381Z,3.88
2023-01-09T22:14:30.787Z,4.45
2023-01-09T22:18:44.253Z,2.40
2023-01-09T22:22:56.611Z,2.35
2023-01-09T22:27:09.074Z,1.88
2023-01-09T22:31:25.304Z,4.45
2023-01-09T22:35:39.846Z,2.83
2023-01-09T22:39:52.977Z,3.50
2023-01-09T22:44:08.366Z,3.63
2023-01-09T22:48:20.689Z,2.30
2023-01-09T22:52:34.522Z,1.40
2023-01-09T22:56:46.809Z,1.75
2023-01-09T23:00:59.401Z,3.00
2023-01-09T23:05:12.108Z,2.38
2023-01-09T23:09:25.521Z,2.00
2023-01-09T23:13:38.978Z,3.22
2023-01-09T23:17:51.279Z,3.50
2023-01-09T23:22:05.352Z,2.15
2023-01-09T23:26:17.675Z,2.92
2023-01-09T23:30:30.067Z,3.17
2023-01-09T23:34:42.588Z,2.33
2023-01-09T23:38:55.059Z,2.75
2023-01-09T23:43:10.638Z,2.92
2023-01-09T23:47:23.046Z,2.22
2023-01-09T23:51:35.526Z,2.17
2023-01-09T23:55:48.680Z,2.47
